| Date | Time | Temp. (oF) | Dew Point (oF) | Rel. Hum. (%) | Press. (in.) | Wind Dir. | Wind Speed (mph) | Hourly Rainfall (in.) |
|
|---|---|---|---|---|---|---|---|---|---|
| 1 | 03/25 | 00:00 | 45 | 31 | 59 | 30.01 | WSW | 0 | 0.00 |
| 2 | 03/24 | 23:00 | 47 | 31 | 54 | 30.01 | SW | 2 | 0.00 |
| 3 | 03/24 | 22:00 | 52 | 27 | 38 | 30.00 | W | 1 | 0.00 |
| 4 | 03/24 | 21:00 | 54 | 24 | 32 | 29.98 | W | 2 | 0.00 |
| 5 | 03/24 | 20:00 | 57 | 23 | 28 | 29.97 | W | 2 | 0.00 |
| 6 | 03/24 | 19:00 | 60 | 24 | 26 | 29.94 | NW | 1 | 0.00 |
| 7 | 03/24 | 18:00 | 62 | 24 | 24 | 29.92 | N | 7 | 0.00 |
| 8 | 03/24 | 17:00 | 63 | 24 | 23 | 29.90 | N | 10 | 0.00 |
| 9 | 03/24 | 16:00 | 63 | 27 | 26 | 29.90 | NW | 17 | 0.00 |
| 10 | 03/24 | 15:00 | 62 | 28 | 28 | 29.91 | NW | 8 | 0.00 |
| 11 | 03/24 | 14:00 | 60 | 28 | 30 | 29.92 | NNW | 10 | 0.00 |
| 12 | 03/24 | 13:00 | 57 | 30 | 36 | 29.93 | NNW | 10 | 0.00 |
| 13 | 03/24 | 12:00 | 54 | 33 | 45 | 29.93 | N | 16 | 0.00 |
| 14 | 03/24 | 11:00 | 52 | 37 | 57 | 29.92 | NNW | 7 | 0.00 |
| 15 | 03/24 | 10:00 | 50 | 37 | 61 | 29.91 | NNW | 10 | 0.00 |
| 16 | 03/24 | 09:00 | 48 | 35 | 63 | 29.88 | NW | 8 | 0.00 |
| 17 | 03/24 | 08:00 | 47 | 36 | 67 | 29.86 | NNW | 13 | 0.00 |
| 18 | 03/24 | 07:00 | 46 | 36 | 70 | 29.83 | NNW | 6 | 0.00 |
| 19 | 03/24 | 06:00 | 46 | 36 | 70 | 29.79 | NW | 8 | 0.00 |
| 20 | 03/24 | 05:00 | 47 | 36 | 66 | 29.76 | NW | 9 | 0.00 |
| 21 | 03/24 | 04:00 | 47 | 36 | 67 | 29.76 | NNW | 4 | 0.00 |
| 22 | 03/24 | 03:00 | 47 | 36 | 68 | 29.75 | WNW | 11 | 0.00 |
| 23 | 03/24 | 02:00 | 46 | 37 | 73 | 29.75 | NW | 11 | 0.00 |
| 24 | 03/24 | 01:00 | 46 | 38 | 74 | 29.74 | N | 8 | 0.00 |